sensor_id;sensor_type;location;lat;lon;timestamp;pressure;altitude;pressure_sealevel;temperature;humidity
62458;BME280;48509;52.122;5.250;2022-08-19T00:01:22;101370.0;;;18.34;93.92
62458;BME280;48509;52.122;5.250;2022-08-19T00:02:59;101366.0;;;18.41;94.08
62458;BME280;48509;52.122;5.250;2022-08-19T00:06:12;101362.0;;;18.34;94.21
62458;BME280;48509;52.122;5.250;2022-08-19T00:07:50;101363.0;;;18.28;94.83
62458;BME280;48509;52.122;5.250;2022-08-19T00:09:27;101360.0;;;18.14;95.41
62458;BME280;48509;52.122;5.250;2022-08-19T00:12:41;101362.0;;;18.12;95.88
62458;BME280;48509;52.122;5.250;2022-08-19T00:14:18;101360.0;;;18.11;96.33
62458;BME280;48509;52.122;5.250;2022-08-19T00:15:55;101367.0;;;18.11;96.65
62458;BME280;48509;52.122;5.250;2022-08-19T00:17:31;101373.0;;;18.27;94.87
62458;BME280;48509;52.122;5.250;2022-08-19T00:20:45;101374.0;;;18.34;93.7
62458;BME280;48509;52.122;5.250;2022-08-19T00:22:21;101369.0;;;18.39;92.93
62458;BME280;48509;52.122;5.250;2022-08-19T00:23:58;101373.0;;;18.2;94.37
62458;BME280;48509;52.122;5.250;2022-08-19T00:27:12;101372.0;;;18.2;94.25
62458;BME280;48509;52.122;5.250;2022-08-19T00:28:49;101370.0;;;18.2;93.98
62458;BME280;48509;52.122;5.250;2022-08-19T00:30:28;101367.0;;;18.07;94.38
62458;BME280;48509;52.122;5.250;2022-08-19T00:32:05;101366.0;;;18.13;94.8
62458;BME280;48509;52.122;5.250;2022-08-19T00:35:18;101365.0;;;18.25;93.39
62458;BME280;48509;52.122;5.250;2022-08-19T00:36:55;101361.0;;;18.11;93.29
62458;BME280;48509;52.122;5.250;2022-08-19T00:38:32;101365.0;;;18.04;94.22
62458;BME280;48509;52.122;5.250;2022-08-19T00:41:49;101362.0;;;17.97;94.36
62458;BME280;48509;52.122;5.250;2022-08-19T00:43:27;101362.0;;;17.98;94.03
62458;BME280;48509;52.122;5.250;2022-08-19T00:45:09;101360.0;;;18.0;93.96
62458;BME280;48509;52.122;5.250;2022-08-19T00:46:49;101357.0;;;17.98;94.17
62458;BME280;48509;52.122;5.250;2022-08-19T00:50:03;101355.0;;;18.0;93.79
62458;BME280;48509;52.122;5.250;2022-08-19T00:51:41;101360.0;;;17.96;94.85
62458;BME280;48509;52.122;5.250;2022-08-19T00:53:23;101367.0;;;18.0;94.77
62458;BME280;48509;52.122;5.250;2022-08-19T00:56:44;101369.0;;;18.13;93.57
62458;BME280;48509;52.122;5.250;2022-08-19T00:58:26;101369.0;;;18.0;93.52
62458;BME280;48509;52.122;5.250;2022-08-19T01:00:09;101370.0;;;17.96;93.73
62458;BME280;48509;52.122;5.250;2022-08-19T01:01:46;101366.0;;;17.91;94.03
62458;BME280;48509;52.122;5.250;2022-08-19T01:05:01;101365.0;;;17.84;93.94
62458;BME280;48509;52.122;5.250;2022-08-19T01:06:41;101363.0;;;17.89;93.83
62458;BME280;48509;52.122;5.250;2022-08-19T01:08:18;101359.0;;;17.88;93.5
62458;BME280;48509;52.122;5.250;2022-08-19T01:09:55;101359.0;;;17.82;94.02
62458;BME280;48509;52.122;5.250;2022-08-19T01:13:21;101357.0;;;17.66;95.52
62458;BME280;48509;52.122;5.250;2022-08-19T01:14:59;101358.0;;;17.72;95.74
62458;BME280;48509;52.122;5.250;2022-08-19T01:16:37;101355.0;;;17.73;95.73
62458;BME280;48509;52.122;5.250;2022-08-19T01:18:17;101355.0;;;17.98;93.58
62458;BME280;48509;52.122;5.250;2022-08-19T01:21:34;101355.0;;;17.95;93.38
62458;BME280;48509;52.122;5.250;2022-08-19T01:23:20;101347.0;;;17.96;92.71
62458;BME280;48509;52.122;5.250;2022-08-19T01:24:56;101347.0;;;17.89;92.98
62458;BME280;48509;52.122;5.250;2022-08-19T01:26:38;101347.0;;;17.82;92.96
62458;BME280;48509;52.122;5.250;2022-08-19T01:29:55;101349.0;;;17.81;92.84
62458;BME280;48509;52.122;5.250;2022-08-19T01:31:31;101355.0;;;17.7;93.83
62458;BME280;48509;52.122;5.250;2022-08-19T01:33:07;101361.0;;;17.59;94.62
62458;BME280;48509;52.122;5.250;2022-08-19T01:36:27;101362.0;;;17.57;94.91
62458;BME280;48509;52.122;5.250;2022-08-19T01:38:07;101365.0;;;17.59;95.04
62458;BME280;48509;52.122;5.250;2022-08-19T01:39:46;101371.0;;;17.54;94.41
62458;BME280;48509;52.122;5.250;2022-08-19T01:41:23;101374.0;;;17.48;94.13
62458;BME280;48509;52.122;5.250;2022-08-19T01:44:38;101380.0;;;17.39;95.11
62458;BME280;48509;52.122;5.250;2022-08-19T01:46:15;101382.0;;;17.36;95.78
62458;BME280;48509;52.122;5.250;2022-08-19T01:47:52;101381.0;;;17.38;95.95
62458;BME280;48509;52.122;5.250;2022-08-19T01:49:29;101374.0;;;17.5;95.47
62458;BME280;48509;52.122;5.250;2022-08-19T01:52:45;101372.0;;;17.47;94.59
62458;BME280;48509;52.122;5.250;2022-08-19T01:54:24;101366.0;;;17.47;94.23
62458;BME280;48509;52.122;5.250;2022-08-19T01:56:01;101368.0;;;17.46;93.98
62458;BME280;48509;52.122;5.250;2022-08-19T01:59:21;101373.0;;;17.46;93.97
62458;BME280;48509;52.122;5.250;2022-08-19T02:01:00;101381.0;;;17.3;94.94
62458;BME280;48509;52.122;5.250;2022-08-19T02:02:36;101380.0;;;17.29;95.5
62458;BME280;48509;52.122;5.250;2022-08-19T02:04:12;101374.0;;;17.41;94.44
62458;BME280;48509;52.122;5.250;2022-08-19T02:07:32;101374.0;;;17.61;93.55
62458;BME280;48509;52.122;5.250;2022-08-19T02:09:08;101373.0;;;17.41;93.22
62458;BME280;48509;52.122;5.250;2022-08-19T02:10:46;101378.0;;;17.34;93.76
62458;BME280;48509;52.122;5.250;2022-08-19T02:13:59;101380.0;;;17.3;93.67
62458;BME280;48509;52.122;5.250;2022-08-19T02:15:37;101378.0;;;17.41;93.94
62458;BME280;48509;52.122;5.250;2022-08-19T02:17:13;101374.0;;;17.62;92.87
62458;BME280;48509;52.122;5.250;2022-08-19T02:18:50;101370.0;;;17.7;91.87
62458;BME280;48509;52.122;5.250;2022-08-19T02:22:03;101373.0;;;17.47;92.43
62458;BME280;48509;52.122;5.250;2022-08-19T02:23:40;101371.0;;;17.54;92.48
62458;BME280;48509;52.122;5.250;2022-08-19T02:25:16;101366.0;;;17.62;92.2
62458;BME280;48509;52.122;5.250;2022-08-19T02:28:29;101367.0;;;17.56;92.05
62458;BME280;48509;52.122;5.250;2022-08-19T02:30:10;101368.0;;;17.5;92.46
62458;BME280;48509;52.122;5.250;2022-08-19T02:31:47;101373.0;;;17.64;91.85
62458;BME280;48509;52.122;5.250;2022-08-19T02:33:23;101376.0;;;17.57;92.29
62458;BME280;48509;52.122;5.250;2022-08-19T02:36:36;101383.0;;;17.39;93.15
62458;BME280;48509;52.122;5.250;2022-08-19T02:38:29;101384.0;;;17.31;93.53
62458;BME280;48509;52.122;5.250;2022-08-19T02:40:07;101381.0;;;17.3;93.2
62458;BME280;48509;52.122;5.250;2022-08-19T02:43:21;101383.0;;;17.31;93.36
62458;BME280;48509;52.122;5.250;2022-08-19T02:44:58;101385.0;;;17.3;93.06
62458;BME280;48509;52.122;5.250;2022-08-19T02:46:34;101384.0;;;17.27;93.63
62458;BME280;48509;52.122;5.250;2022-08-19T02:48:11;101389.0;;;17.23;94.56
62458;BME280;48509;52.122;5.250;2022-08-19T02:51:28;101388.0;;;17.27;93.9
62458;BME280;48509;52.122;5.250;2022-08-19T02:53:08;101387.0;;;17.27;94.0
62458;BME280;48509;52.122;5.250;2022-08-19T02:54:46;101382.0;;;17.28;94.07
62458;BME280;48509;52.122;5.250;2022-08-19T02:57:59;101378.0;;;17.25;94.1
62458;BME280;48509;52.122;5.250;2022-08-19T02:59:36;101372.0;;;17.27;95.63
62458;BME280;48509;52.122;5.250;2022-08-19T03:01:20;101363.0;;;17.34;94.85
62458;BME280;48509;52.122;5.250;2022-08-19T03:02:57;101369.0;;;17.34;95.07
62458;BME280;48509;52.122;5.250;2022-08-19T03:06:12;101375.0;;;17.25;96.16
62458;BME280;48509;52.122;5.250;2022-08-19T03:07:49;101380.0;;;17.29;95.82
62458;BME280;48509;52.122;5.250;2022-08-19T03:09:26;101369.0;;;17.28;95.34
62458;BME280;48509;52.122;5.250;2022-08-19T03:11:03;101372.0;;;17.28;94.86
62458;BME280;48509;52.122;5.250;2022-08-19T03:14:18;101366.0;;;17.3;95.04
62458;BME280;48509;52.122;5.250;2022-08-19T03:15:54;101365.0;;;17.27;95.68
62458;BME280;48509;52.122;5.250;2022-08-19T03:17:30;101361.0;;;17.27;95.79
62458;BME280;48509;52.122;5.250;2022-08-19T03:20:43;101362.0;;;17.29;95.58
62458;BME280;48509;52.122;5.250;2022-08-19T03:22:22;101368.0;;;17.29;94.68
62458;BME280;48509;52.122;5.250;2022-08-19T03:24:02;101364.0;;;17.27;94.47
62458;BME280;48509;52.122;5.250;2022-08-19T03:25:45;101362.0;;;17.22;94.12
62458;BME280;48509;52.122;5.250;2022-08-19T03:29:03;101364.0;;;17.25;94.98
62458;BME280;48509;52.122;5.250;2022-08-19T03:30:42;101365.0;;;17.3;94.27
62458;BME280;48509;52.122;5.250;2022-08-19T03:35:31;101366.0;;;17.16;95.37
62458;BME280;48509;52.122;5.250;2022-08-19T03:37:09;101366.0;;;17.16;95.45
62458;BME280;48509;52.122;5.250;2022-08-19T03:38:51;101359.0;;;17.11;95.94
62458;BME280;48509;52.122;5.250;2022-08-19T03:40:30;101362.0;;;17.02;96.56
62458;BME280;48509;52.122;5.250;2022-08-19T03:43:46;101362.0;;;17.02;96.74
62458;BME280;48509;52.122;5.250;2022-08-19T03:45:23;101362.0;;;17.04;95.9
62458;BME280;48509;52.122;5.250;2022-08-19T03:47:00;101364.0;;;17.05;95.64
62458;BME280;48509;52.122;5.250;2022-08-19T03:50:15;101357.0;;;17.05;95.77
62458;BME280;48509;52.122;5.250;2022-08-19T03:51:53;101356.0;;;17.07;96.17
62458;BME280;48509;52.122;5.250;2022-08-19T03:53:31;101356.0;;;17.16;96.04
62458;BME280;48509;52.122;5.250;2022-08-19T03:55:08;101355.0;;;17.11;95.07
62458;BME280;48509;52.122;5.250;2022-08-19T03:58:25;101352.0;;;17.09;94.84
62458;BME280;48509;52.122;5.250;2022-08-19T04:00:05;101356.0;;;17.07;95.06
62458;BME280;48509;52.122;5.250;2022-08-19T04:01:42;101352.0;;;17.05;95.18
62458;BME280;48509;52.122;5.250;2022-08-19T04:04:55;101358.0;;;17.0;95.03
62458;BME280;48509;52.122;5.250;2022-08-19T04:06:34;101358.0;;;16.96;95.52
62458;BME280;48509;52.122;5.250;2022-08-19T04:08:11;101364.0;;;17.09;94.56
62458;BME280;48509;52.122;5.250;2022-08-19T04:09:47;101372.0;;;17.0;94.29
62458;BME280;48509;52.122;5.250;2022-08-19T04:13:04;101368.0;;;16.91;94.54
62458;BME280;48509;52.122;5.250;2022-08-19T04:14:41;101364.0;;;16.95;94.67
62458;BME280;48509;52.122;5.250;2022-08-19T04:16:18;101360.0;;;16.89;94.56
62458;BME280;48509;52.122;5.250;2022-08-19T04:19:33;101355.0;;;16.86;94.68
62458;BME280;48509;52.122;5.250;2022-08-19T04:21:16;101358.0;;;16.89;94.4
62458;BME280;48509;52.122;5.250;2022-08-19T04:22:53;101357.0;;;16.86;94.12
62458;BME280;48509;52.122;5.250;2022-08-19T04:24:29;101358.0;;;16.95;93.53
62458;BME280;48509;52.122;5.250;2022-08-19T04:27:46;101358.0;;;16.84;94.99
62458;BME280;48509;52.122;5.250;2022-08-19T04:29:25;101359.0;;;16.88;94.63
62458;BME280;48509;52.122;5.250;2022-08-19T04:31:01;101356.0;;;16.88;95.45
62458;BME280;48509;52.122;5.250;2022-08-19T04:34:19;101352.0;;;16.93;94.61
62458;BME280;48509;52.122;5.250;2022-08-19T04:35:58;101346.0;;;16.93;95.44
62458;BME280;48509;52.122;5.250;2022-08-19T04:37:34;101344.0;;;16.86;96.35
62458;BME280;48509;52.122;5.250;2022-08-19T04:39:14;101345.0;;;16.93;96.27
62458;BME280;48509;52.122;5.250;2022-08-19T04:43:47;101346.0;;;16.97;95.42
62458;BME280;48509;52.122;5.250;2022-08-19T04:45:24;101341.0;;;17.0;95.85
62458;BME280;48509;52.122;5.250;2022-08-19T04:48:38;101346.0;;;16.93;95.89
62458;BME280;48509;52.122;5.250;2022-08-19T04:50:15;101344.0;;;16.97;95.33
62458;BME280;48509;52.122;5.250;2022-08-19T04:51:54;101349.0;;;16.97;95.31
62458;BME280;48509;52.122;5.250;2022-08-19T04:55:11;101351.0;;;16.89;95.03
62458;BME280;48509;52.122;5.250;2022-08-19T04:56:49;101355.0;;;16.93;95.2
62458;BME280;48509;52.122;5.250;2022-08-19T04:58:27;101358.0;;;16.93;95.21
62458;BME280;48509;52.122;5.250;2022-08-19T05:00:06;101359.0;;;16.86;95.83
62458;BME280;48509;52.122;5.250;2022-08-19T05:03:19;101364.0;;;16.88;96.3
62458;BME280;48509;52.122;5.250;2022-08-19T05:04:57;101371.0;;;17.04;95.69
62458;BME280;48509;52.122;5.250;2022-08-19T05:06:35;101375.0;;;17.03;94.95
62458;BME280;48509;52.122;5.250;2022-08-19T05:08:13;101378.0;;;17.0;95.74
62458;BME280;48509;52.122;5.250;2022-08-19T05:11:28;101377.0;;;17.09;95.43
62458;BME280;48509;52.122;5.250;2022-08-19T05:13:09;101382.0;;;17.09;95.34
62458;BME280;48509;52.122;5.250;2022-08-19T05:14:47;101381.0;;;17.03;95.23
62458;BME280;48509;52.122;5.250;2022-08-19T05:24:30;101382.0;;;17.12;96.05
62458;BME280;48509;52.122;5.250;2022-08-19T05:26:06;101381.0;;;17.14;95.92
62458;BME280;48509;52.122;5.250;2022-08-19T05:27:42;101385.0;;;17.29;95.12
62458;BME280;48509;52.122;5.250;2022-08-19T05:29:20;101394.0;;;17.28;94.95
62458;BME280;48509;52.122;5.250;2022-08-19T05:32:33;101386.0;;;17.34;95.3
62458;BME280;48509;52.122;5.250;2022-08-19T05:34:11;101385.0;;;17.38;95.41
62458;BME280;48509;52.122;5.250;2022-08-19T05:35:49;101383.0;;;17.41;96.27
62458;BME280;48509;52.122;5.250;2022-08-19T05:39:04;101381.0;;;17.52;95.99
62458;BME280;48509;52.122;5.250;2022-08-19T05:40:42;101380.0;;;17.66;95.91
62458;BME280;48509;52.122;5.250;2022-08-19T05:42:20;101369.0;;;17.72;95.88
62458;BME280;48509;52.122;5.250;2022-08-19T05:43:58;101369.0;;;17.73;96.18
62458;BME280;48509;52.122;5.250;2022-08-19T05:47:15;101369.0;;;17.84;96.02
62458;BME280;48509;52.122;5.250;2022-08-19T05:48:54;101366.0;;;17.86;96.18
62458;BME280;48509;52.122;5.250;2022-08-19T05:50:30;101377.0;;;17.84;96.17
62458;BME280;48509;52.122;5.250;2022-08-19T05:53:47;101376.0;;;17.93;95.74
62458;BME280;48509;52.122;5.250;2022-08-19T05:55:23;101380.0;;;17.97;96.04
62458;BME280;48509;52.122;5.250;2022-08-19T05:57:01;101371.0;;;18.05;96.07
62458;BME280;48509;52.122;5.250;2022-08-19T05:58:38;101367.0;;;18.11;96.22
62458;BME280;48509;52.122;5.250;2022-08-19T06:01:54;101367.0;;;18.11;96.33
62458;BME280;48509;52.122;5.250;2022-08-19T06:03:32;101363.0;;;18.16;96.23
62458;BME280;48509;52.122;5.250;2022-08-19T06:05:10;101368.0;;;18.29;95.69
62458;BME280;48509;52.122;5.250;2022-08-19T06:06:48;101367.0;;;18.27;96.28
62458;BME280;48509;52.122;5.250;2022-08-19T06:10:02;101369.0;;;18.34;96.2
62458;BME280;48509;52.122;5.250;2022-08-19T06:11:43;101372.0;;;18.55;95.95
62458;BME280;48509;52.122;5.250;2022-08-19T06:13:20;101368.0;;;18.64;97.1
62458;BME280;48509;52.122;5.250;2022-08-19T06:16:36;101370.0;;;18.7;97.45
62458;BME280;48509;52.122;5.250;2022-08-19T06:18:14;101374.0;;;18.86;97.74
62458;BME280;48509;52.122;5.250;2022-08-19T06:19:52;101375.0;;;19.05;98.24
62458;BME280;48509;52.122;5.250;2022-08-19T06:21:29;101374.0;;;19.14;98.62
62458;BME280;48509;52.122;5.250;2022-08-19T06:24:43;101381.0;;;19.38;98.29
62458;BME280;48509;52.122;5.250;2022-08-19T06:26:20;101378.0;;;19.53;97.5
62458;BME280;48509;52.122;5.250;2022-08-19T06:27:57;101375.0;;;19.59;97.27
62458;BME280;48509;52.122;5.250;2022-08-19T06:31:14;101374.0;;;19.72;96.77
62458;BME280;48509;52.122;5.250;2022-08-19T06:32:52;101371.0;;;19.79;96.23
62458;BME280;48509;52.122;5.250;2022-08-19T06:34:31;101372.0;;;19.86;95.81
62458;BME280;48509;52.122;5.250;2022-08-19T06:36:17;101376.0;;;19.93;95.42
62458;BME280;48509;52.122;5.250;2022-08-19T06:39:32;101374.0;;;20.03;95.66
62458;BME280;48509;52.122;5.250;2022-08-19T06:41:14;101380.0;;;20.16;94.53
62458;BME280;48509;52.122;5.250;2022-08-19T06:42:50;101380.0;;;20.21;94.68
62458;BME280;48509;52.122;5.250;2022-08-19T06:44:30;101376.0;;;20.32;93.92
62458;BME280;48509;52.122;5.250;2022-08-19T06:47:48;101378.0;;;20.3;94.74
62458;BME280;48509;52.122;5.250;2022-08-19T06:49:27;101375.0;;;20.32;94.22
62458;BME280;48509;52.122;5.250;2022-08-19T06:51:08;101376.0;;;20.32;94.16
62458;BME280;48509;52.122;5.250;2022-08-19T06:54:20;101375.0;;;20.43;94.81
62458;BME280;48509;52.122;5.250;2022-08-19T06:56:00;101374.0;;;20.54;93.05
62458;BME280;48509;52.122;5.250;2022-08-19T06:57:36;101377.0;;;20.49;93.15
62458;BME280;48509;52.122;5.250;2022-08-19T06:59:15;101380.0;;;20.54;93.01
62458;BME280;48509;52.122;5.250;2022-08-19T07:02:40;101377.0;;;20.54;92.39
62458;BME280;48509;52.122;5.250;2022-08-19T07:04:18;101384.0;;;20.66;91.51
62458;BME280;48509;52.122;5.250;2022-08-19T07:05:56;101385.0;;;20.56;92.04
62458;BME280;48509;52.122;5.250;2022-08-19T07:07:34;101386.0;;;20.6;91.27
62458;BME280;48509;52.122;5.250;2022-08-19T07:10:53;101386.0;;;20.46;91.45
62458;BME280;48509;52.122;5.250;2022-08-19T07:12:30;101386.0;;;20.69;90.78
62458;BME280;48509;52.122;5.250;2022-08-19T07:14:07;101386.0;;;20.68;90.74
62458;BME280;48509;52.122;5.250;2022-08-19T07:17:22;101389.0;;;20.75;89.79
62458;BME280;48509;52.122;5.250;2022-08-19T07:18:59;101395.0;;;20.76;89.79
62458;BME280;48509;52.122;5.250;2022-08-19T07:20:37;101396.0;;;20.73;88.49
62458;BME280;48509;52.122;5.250;2022-08-19T07:22:15;101397.0;;;20.7;89.87
62458;BME280;48509;52.122;5.250;2022-08-19T07:25:28;101400.0;;;20.81;89.55
62458;BME280;48509;52.122;5.250;2022-08-19T07:27:05;101402.0;;;20.75;91.06
62458;BME280;48509;52.122;5.250;2022-08-19T07:28:45;101403.0;;;20.86;89.48
62458;BME280;48509;52.122;5.250;2022-08-19T07:32:00;101405.0;;;20.97;88.57
62458;BME280;48509;52.122;5.250;2022-08-19T07:33:37;101408.0;;;20.85;88.24
62458;BME280;48509;52.122;5.250;2022-08-19T07:35:14;101403.0;;;20.96;88.59
62458;BME280;48509;52.122;5.250;2022-08-19T07:36:50;101399.0;;;20.93;88.82
62458;BME280;48509;52.122;5.250;2022-08-19T07:40:06;101398.0;;;20.92;89.73
62458;BME280;48509;52.122;5.250;2022-08-19T07:41:43;101395.0;;;21.06;88.76
62458;BME280;48509;52.122;5.250;2022-08-19T07:43:25;101403.0;;;21.12;88.56
62458;BME280;48509;52.122;5.250;2022-08-19T07:46:48;101401.0;;;21.25;86.71
62458;BME280;48509;52.122;5.250;2022-08-19T07:48:28;101405.0;;;21.2;87.05
62458;BME280;48509;52.122;5.250;2022-08-19T07:50:08;101409.0;;;21.14;86.2
62458;BME280;48509;52.122;5.250;2022-08-19T07:51:48;101413.0;;;21.11;86.65
62458;BME280;48509;52.122;5.250;2022-08-19T07:55:05;101417.0;;;21.26;86.16
62458;BME280;48509;52.122;5.250;2022-08-19T07:56:42;101420.0;;;21.09;86.32
62458;BME280;48509;52.122;5.250;2022-08-19T07:58:20;101417.0;;;21.19;86.12
62458;BME280;48509;52.122;5.250;2022-08-19T07:59:58;101419.0;;;21.2;86.08
62458;BME280;48509;52.122;5.250;2022-08-19T08:03:13;101420.0;;;21.18;85.78
62458;BME280;48509;52.122;5.250;2022-08-19T08:09:31;101423.0;;;21.47;84.73
62458;BME280;48509;52.122;5.250;2022-08-19T08:11:08;101420.0;;;21.61;84.04
62458;BME280;48509;52.122;5.250;2022-08-19T08:12:46;101425.0;;;21.73;83.86
62458;BME280;48509;52.122;5.250;2022-08-19T08:16:03;101432.0;;;21.8;84.29
62458;BME280;48509;52.122;5.250;2022-08-19T08:17:40;101436.0;;;21.9;83.91
62458;BME280;48509;52.122;5.250;2022-08-19T08:19:18;101437.0;;;21.96;82.52
62458;BME280;48509;52.122;5.250;2022-08-19T08:20:57;101442.0;;;22.11;81.91
62458;BME280;48509;52.122;5.250;2022-08-19T08:25:16;101442.0;;;22.17;81.5
62458;BME280;48509;52.122;5.250;2022-08-19T08:28:35;101441.0;;;22.14;80.39
62458;BME280;48509;52.122;5.250;2022-08-19T08:30:14;101442.0;;;22.19;81.03
62458;BME280;48509;52.122;5.250;2022-08-19T08:31:54;101443.0;;;22.25;79.91
62458;BME280;48509;52.122;5.250;2022-08-19T08:33:30;101442.0;;;22.36;80.44
62458;BME280;48509;52.122;5.250;2022-08-19T08:36:48;101441.0;;;22.47;78.5
62458;BME280;48509;52.122;5.250;2022-08-19T08:38:25;101438.0;;;22.33;78.47
62458;BME280;48509;52.122;5.250;2022-08-19T08:40:03;101440.0;;;22.41;78.36
62458;BME280;48509;52.122;5.250;2022-08-19T08:41:46;101441.0;;;22.4;78.47
62458;BME280;48509;52.122;5.250;2022-08-19T08:45:16;101438.0;;;22.5;76.87
62458;BME280;48509;52.122;5.250;2022-08-19T08:46:57;101433.0;;;22.46;76.92
62458;BME280;48509;52.122;5.250;2022-08-19T08:48:42;101433.0;;;22.55;77.06
62458;BME280;48509;52.122;5.250;2022-08-19T08:50:24;101430.0;;;22.55;77.91
62458;BME280;48509;52.122;5.250;2022-08-19T08:52:07;101435.0;;;22.51;77.59
62458;BME280;48509;52.122;5.250;2022-08-19T08:55:29;101433.0;;;22.51;76.89
62458;BME280;48509;52.122;5.250;2022-08-19T08:57:10;101435.0;;;22.53;77.38
62458;BME280;48509;52.122;5.250;2022-08-19T08:58:59;101434.0;;;22.46;77.73
62458;BME280;48509;52.122;5.250;2022-08-19T09:00:40;101438.0;;;22.46;77.66
62458;BME280;48509;52.122;5.250;2022-08-19T09:03:56;101436.0;;;22.6;77.19
62458;BME280;48509;52.122;5.250;2022-08-19T09:05:39;101437.0;;;22.68;75.66
62458;BME280;48509;52.122;5.250;2022-08-19T09:07:38;101432.0;;;22.82;75.61
62458;BME280;48509;52.122;5.250;2022-08-19T09:09:34;101432.0;;;22.98;75.55
62458;BME280;48509;52.122;5.250;2022-08-19T09:11:18;101439.0;;;23.1;74.44
62458;BME280;48509;52.122;5.250;2022-08-19T09:13:13;101442.0;;;23.19;74.12
62458;BME280;48509;52.122;5.250;2022-08-19T09:16:41;101444.0;;;23.27;74.56
62458;BME280;48509;52.122;5.250;2022-08-19T09:18:18;101449.0;;;23.32;74.34
62458;BME280;48509;52.122;5.250;2022-08-19T09:19:57;101447.0;;;23.36;73.13
62458;BME280;48509;52.122;5.250;2022-08-19T09:21:35;101443.0;;;23.57;74.66
62458;BME280;48509;52.122;5.250;2022-08-19T09:24:48;101449.0;;;23.72;74.91
62458;BME280;48509;52.122;5.250;2022-08-19T09:26:25;101443.0;;;23.7;71.88
62458;BME280;48509;52.122;5.250;2022-08-19T09:28:03;101448.0;;;23.68;70.47
62458;BME280;48509;52.122;5.250;2022-08-19T09:31:17;101444.0;;;23.53;70.12
62458;BME280;48509;52.122;5.250;2022-08-19T09:33:01;101444.0;;;23.45;72.19
62458;BME280;48509;52.122;5.250;2022-08-19T09:34:37;101442.0;;;23.6;71.36
62458;BME280;48509;52.122;5.250;2022-08-19T09:36:17;101444.0;;;23.76;71.39
62458;BME280;48509;52.122;5.250;2022-08-19T09:39:31;101449.0;;;23.82;71.47
62458;BME280;48509;52.122;5.250;2022-08-19T09:41:09;101450.0;;;23.85;70.7
62458;BME280;48509;52.122;5.250;2022-08-19T09:42:48;101455.0;;;23.92;71.91
62458;BME280;48509;52.122;5.250;2022-08-19T09:44:24;101457.0;;;23.96;70.13
62458;BME280;48509;52.122;5.250;2022-08-19T09:47:38;101456.0;;;23.96;69.02
62458;BME280;48509;52.122;5.250;2022-08-19T09:49:15;101456.0;;;23.85;68.64
62458;BME280;48509;52.122;5.250;2022-08-19T09:50:52;101458.0;;;23.61;70.19
62458;BME280;48509;52.122;5.250;2022-08-19T09:54:05;101456.0;;;23.74;70.53
62458;BME280;48509;52.122;5.250;2022-08-19T09:55:41;101458.0;;;23.85;71.41
62458;BME280;48509;52.122;5.250;2022-08-19T09:57:18;101456.0;;;23.88;72.25
62458;BME280;48509;52.122;5.250;2022-08-19T10:00:30;101459.0;;;24.01;71.52
62458;BME280;48509;52.122;5.250;2022-08-19T10:02:09;101456.0;;;23.96;70.97
62458;BME280;48509;52.122;5.250;2022-08-19T10:03:47;101455.0;;;23.97;71.25
62458;BME280;48509;52.122;5.250;2022-08-19T10:05:58;101453.0;;;24.04;72.77
62458;BME280;48509;52.122;5.250;2022-08-19T10:07:35;101455.0;;;24.19;70.69
62458;BME280;48509;52.122;5.250;2022-08-19T10:10:50;101453.0;;;24.21;70.44
62458;BME280;48509;52.122;5.250;2022-08-19T10:12:28;101449.0;;;24.26;70.0
62458;BME280;48509;52.122;5.250;2022-08-19T10:14:06;101445.0;;;24.38;70.75
62458;BME280;48509;52.122;5.250;2022-08-19T10:15:43;101447.0;;;24.27;70.25
62458;BME280;48509;52.122;5.250;2022-08-19T10:18:57;101452.0;;;24.46;70.42
62458;BME280;48509;52.122;5.250;2022-08-19T10:20:35;101448.0;;;24.5;70.48
62458;BME280;48509;52.122;5.250;2022-08-19T10:22:14;101442.0;;;24.51;69.88
62458;BME280;48509;52.122;5.250;2022-08-19T10:25:32;101440.0;;;24.47;70.17
62458;BME280;48509;52.122;5.250;2022-08-19T10:27:10;101440.0;;;24.46;69.53
62458;BME280;48509;52.122;5.250;2022-08-19T10:28:47;101437.0;;;24.54;69.69
62458;BME280;48509;52.122;5.250;2022-08-19T10:30:23;101440.0;;;24.4;70.33
62458;BME280;48509;52.122;5.250;2022-08-19T10:33:38;101441.0;;;24.54;69.88
62458;BME280;48509;52.122;5.250;2022-08-19T10:35:15;101436.0;;;24.39;70.73
62458;BME280;48509;52.122;5.250;2022-08-19T10:36:52;101439.0;;;24.47;71.36
62458;BME280;48509;52.122;5.250;2022-08-19T10:40:07;101442.0;;;24.57;71.23
62458;BME280;48509;52.122;5.250;2022-08-19T10:41:44;101442.0;;;24.52;73.19
62458;BME280;48509;52.122;5.250;2022-08-19T10:43:21;101439.0;;;24.37;71.41
62458;BME280;48509;52.122;5.250;2022-08-19T10:46:36;101440.0;;;24.42;72.28
62458;BME280;48509;52.122;5.250;2022-08-19T10:48:16;101439.0;;;24.55;73.59
62458;BME280;48509;52.122;5.250;2022-08-19T10:52:47;101435.0;;;24.48;70.94
62458;BME280;48509;52.122;5.250;2022-08-19T10:56:51;101435.0;;;24.59;71.03
62458;BME280;48509;52.122;5.250;2022-08-19T10:58:27;101433.0;;;24.54;70.8
62458;BME280;48509;52.122;5.250;2022-08-19T11:00:04;101434.0;;;24.61;71.05
62458;BME280;48509;52.122;5.250;2022-08-19T11:03:19;101435.0;;;24.73;71.81
62458;BME280;48509;52.122;5.250;2022-08-19T11:04:56;101433.0;;;24.78;72.39
62458;BME280;48509;52.122;5.250;2022-08-19T11:06:32;101433.0;;;24.88;73.22
62458;BME280;48509;52.122;5.250;2022-08-19T11:08:11;101426.0;;;25.02;72.05
62458;BME280;48509;52.122;5.250;2022-08-19T11:11:24;101433.0;;;25.2;71.95
62458;BME280;48509;52.122;5.250;2022-08-19T11:13:00;101425.0;;;25.35;71.3
62458;BME280;48509;52.122;5.250;2022-08-19T11:14:36;101431.0;;;25.48;71.36
62458;BME280;48509;52.122;5.250;2022-08-19T11:17:54;101432.0;;;25.64;68.7
62458;BME280;48509;52.122;5.250;2022-08-19T11:19:32;101431.0;;;25.7;68.39
62458;BME280;48509;52.122;5.250;2022-08-19T11:21:12;101425.0;;;25.8;70.56
62458;BME280;48509;52.122;5.250;2022-08-19T11:22:51;101421.0;;;25.85;69.24
62458;BME280;48509;52.122;5.250;2022-08-19T11:26:04;101419.0;;;25.89;69.16
62458;BME280;48509;52.122;5.250;2022-08-19T11:27:42;101416.0;;;25.93;67.16